Aérodrome :
LOGIN :

S'inscrire | Disclaimer

   EN    FR    IT 

 










Légende :    VFR   VFR Marginal   IFR   IFR Intensif   IFR Très Intensif
Visi : 
Plafond : 
>= 8 km
>= 3000ft
5 à 8 km
1000 à 3000 ft
1500m à 5 km
500 à 1000 ft
800 à 1500m
200 à 500 ft
< 800m
< 200 ft
Symboles :   Orages  Brouillard  Fortes neiges  Fortes précipitations  Vent > 20 kt
SIGMETs :   Divers  Orages  Givrage  Turbulence  Onde Orograph.  Cendres Volcan.






- Altitude de l'aérodrome : 359 ft
- Code IATA : DEB


LHDC - Debrecen

DERNIER METAR :
  • 271115Z AUTO VRB02KT 9999 BKN015 18/14 Q1001 NOSIG

METARs EXPIRÉS :
  • 271045Z AUTO VRB01KT 9999 BKN011 BKN023 BKN028 17/14 Q1002 NOSIG
  • 271041Z AUTO VRB02KT 9999 BKN011 BKN023 BKN028 16/14 Q1002
  • 271015Z AUTO VRB03KT 9999 BKN007 16/14 Q1002 NOSIG
  • 270945Z AUTO 10004KT 050V150 9999 BKN005 15/14 Q1002 NOSIG
  • 270915Z AUTO 12005KT 070V180 9000 BKN005 14/14 Q1002 NOSIG
  • 270845Z AUTO 12003KT 060V170 9000 BKN003 13/13 Q1002 NOSIG

TAF TAF LHDC
Valide du 27 à 12h jusqu'au 27 à 21h UTC


271115Z 2712/2721 VRB03KT 9999 SCT013 SCT025 BKN040
TEMPO 2712/2721 6000 SHRA BKN010 BKN025
PROB30
TEMPO 2713/2719 VRB18G33KT 4000 TSRA SCT005 BKN010CB



MET'MAP, la Météo Aéronautique d'un coup d'oeil ! - Copyright ORBIFLY Décembre 2007 - Disclaimer

ORBIFLY MET'MAP TEAM :

Programmation & Développement : Alexandra Zaïnal
Sur une idée originale de : Baudouin d'Aumeries
Soutien technique & logistique : Manuel Goepfert
Assistance : Marc-Olivier Méhu




SOURCES & CREDITS :

   NOAA